Time;durP1;ratioP1;P1;durP2;ratioP2;P2;SDS_P1;SDS_P2;PMS_P1;PMS_P2;Temp;Humidity;BMP_temperature;BMP_pressure;BME280_temperature;BME280_humidity;BME280_pressure;Samples;Min_cycle;Max_cycle;Signal;HPM_P1;HPM_P2
2022/02/07 00:00:14;;;;;;;;;;;8.60;99.90;9.00;99926.00;;;;348480;27;91231;-88
2022/02/07 00:00:35;;;;;;;;;;;8.60;99.90;9.00;99931.00;;;;345023;28;82274;-88
2022/02/07 00:00:57;;;;;;;;;;;8.60;99.90;9.00;99941.00;;;;345805;28;90463;-88
2022/02/07 00:01:19;;;;;;;;;;;8.60;99.90;8.90;99936.00;;;;347532;28;82515;-88
2022/02/07 00:01:38;;;;;;;;;;;8.60;99.90;8.90;99931.00;;;;345541;28;91078;-88
2022/02/07 00:01:59;;;;;;;;;;;8.60;99.90;8.90;99932.00;;;;346357;28;83355;-88
2022/02/07 00:02:11;;;;;;;;;;;8.50;99.90;9.00;99929.00;;;;345696;28;91441;-88
2022/02/07 00:02:25;;;;;;;;;;;8.50;99.90;9.00;99924.00;;;;347742;28;82317;-88
2022/02/07 00:03:02;;;;;;;;;;;8.50;99.90;9.00;99924.00;;;;343176;28;90347;-88
2022/02/07 00:03:37;;;;;;;;;;;8.50;99.90;9.00;99927.00;;;;346435;28;82427;-88
2022/02/07 00:03:52;;;;;;;;;;;8.50;99.90;9.00;99930.00;;;;348270;28;90650;-87
2022/02/07 00:04:05;;;;;;;;;;;8.60;99.90;9.00;99920.00;;;;349327;28;82572;-88
2022/02/07 00:04:23;;;;;;;;;;;8.50;99.90;9.00;99924.00;;;;350190;27;90628;-88
2022/02/07 00:04:37;;;;;;;;;;;8.60;99.90;9.00;99934.00;;;;348246;28;82491;-88
2022/02/07 00:04:49;;;;;;;;;;;8.60;99.90;9.00;99927.00;;;;348456;28;90388;-88
2022/02/07 00:05:01;;;;;;;;;;;8.50;99.90;9.00;99930.00;;;;349015;28;82535;-88
2022/02/07 00:05:12;;;;;;;;;;;8.60;99.90;9.00;99929.00;;;;347246;28;91156;-88
2022/02/07 00:05:27;;;;;;;;;;;8.50;99.90;9.00;99930.00;;;;347819;28;82253;-89
2022/02/07 00:05:39;;;;;;;;;;;8.50;99.90;8.90;99928.00;;;;348174;28;90468;-88
2022/02/07 00:05:51;;;;;;;;;;;8.50;99.90;8.90;99935.00;;;;349046;28;82385;-88
2022/02/07 00:06:03;;;;;;;;;;;8.50;99.90;9.00;99928.00;;;;348679;27;91159;-88
2022/02/07 00:06:15;;;;;;;;;;;8.50;99.90;9.00;99926.00;;;;347734;28;82524;-88
2022/02/07 00:06:27;;;;;;;;;;;8.50;99.90;9.00;99926.00;;;;347339;28;90939;-88
2022/02/07 00:06:38;;;;;;;;;;;8.50;99.90;9.00;99934.00;;;;350410;27;82336;-88
2022/02/07 00:06:50;;;;;;;;;;;8.60;99.90;8.90;99936.00;;;;347254;28;90566;-88
2022/02/07 00:07:02;;;;;;;;;;;8.50;99.90;8.90;99926.00;;;;348942;28;82565;-88
2022/02/07 00:07:17;;;;;;;;;;;8.50;99.90;8.90;99929.00;;;;345940;28;92680;-88
2022/02/07 00:07:29;;;;;;;;;;;8.50;99.90;8.90;99934.00;;;;347592;28;82315;-88
2022/02/07 00:07:41;;;;;;;;;;;8.50;99.90;8.90;99934.00;;;;348253;28;90133;-88
2022/02/07 00:07:53;;;;;;;;;;;8.50;99.90;8.90;99937.00;;;;346425;28;82299;-88
2022/02/07 00:08:07;;;;;;;;;;;8.50;99.90;8.90;99936.00;;;;346526;28;90200;-88
2022/02/07 00:08:19;;;;;;;;;;;8.50;99.90;8.90;99945.00;;;;349118;28;82548;-89
2022/02/07 00:08:33;;;;;;;;;;;8.50;99.90;8.90;99936.00;;;;348587;28;91301;-88
2022/02/07 00:08:46;;;;;;;;;;;8.50;99.90;8.90;99942.00;;;;349153;28;82516;-88
2022/02/07 00:08:58;;;;;;;;;;;8.50;99.90;8.90;99935.00;;;;347263;28;90516;-88
2022/02/07 00:09:10;;;;;;;;;;;8.50;99.90;8.90;99944.00;;;;349293;28;82311;-88
2022/02/07 00:09:22;;;;;;;;;;;8.50;99.90;8.90;99943.00;;;;350093;27;92136;-88
2022/02/07 00:09:34;;;;;;;;;;;8.50;99.90;9.00;99938.00;;;;350398;27;82398;-88
2022/02/07 00:09:46;;;;;;;;;;;8.50;99.90;9.00;99925.00;;;;349783;27;90441;-88
2022/02/07 00:09:58;;;;;;;;;;;8.50;99.90;9.00;99932.00;;;;348986;28;82429;-88
2022/02/07 00:10:09;;;;;;;;;;;8.50;99.90;9.00;99931.00;;;;346994;28;90067;-88
2022/02/07 00:10:22;;;;;;;;;;;8.50;99.90;9.00;99939.00;;;;347703;28;82266;-89
2022/02/07 00:10:38;;;;;;;;;;;8.50;99.90;9.00;99928.00;;;;347395;28;90164;-88
2022/02/07 00:10:50;;;;;;;;;;;8.50;99.90;9.00;99934.00;;;;348469;28;83615;-88
2022/02/07 00:11:02;;;;;;;;;;;8.50;99.90;9.00;99938.00;;;;350384;27;89762;-88
2022/02/07 00:11:14;;;;;;;;;;;8.60;99.90;9.00;99929.00;;;;349010;28;83193;-88
2022/02/07 00:11:26;;;;;;;;;;;8.50;99.90;9.10;99929.00;;;;348569;28;91487;-88
2022/02/07 00:11:38;;;;;;;;;;;8.50;99.90;9.00;99930.00;;;;348987;28;82541;-88
2022/02/07 00:11:50;;;;;;;;;;;8.50;99.90;9.00;99931.00;;;;348682;28;90499;-88
2022/02/07 00:12:02;;;;;;;;;;;8.50;99.90;9.00;99935.00;;;;349135;28;82425;-88
2022/02/07 00:12:15;;;;;;;;;;;8.50;99.90;9.10;99925.00;;;;348874;28;90513;-88
2022/02/07 00:12:27;;;;;;;;;;;8.50;99.90;9.00;99931.00;;;;347515;28;82352;-88
2022/02/07 00:12:40;;;;;;;;;;;8.50;99.90;9.00;99923.00;;;;348724;28;90519;-89
2022/02/07 00:12:52;;;;;;;;;;;8.50;99.90;9.00;99931.00;;;;348965;27;82387;-88
2022/02/07 00:13:04;;;;;;;;;;;8.50;99.90;9.10;99928.00;;;;350148;27;89851;-88
2022/02/07 00:13:16;;;;;;;;;;;8.50;99.90;9.10;99931.00;;;;351907;27;82432;-88
2022/02/07 00:13:28;;;;;;;;;;;8.60;99.90;9.00;99935.00;;;;348452;28;90986;-88
2022/02/07 00:13:41;;;;;;;;;;;8.50;99.90;9.00;99933.00;;;;349034;28;82398;-89
2022/02/07 00:13:53;;;;;;;;;;;8.60;99.90;9.00;99932.00;;;;345748;28;90078;-88
2022/02/07 00:14:04;;;;;;;;;;;8.50;99.90;9.00;99944.00;;;;350109;27;82439;-88
2022/02/07 00:14:16;;;;;;;;;;;8.50;99.90;9.00;99940.00;;;;348818;28;90250;-89
2022/02/07 00:14:28;;;;;;;;;;;8.50;99.90;9.00;99936.00;;;;346404;28;82435;-88
2022/02/07 00:14:40;;;;;;;;;;;8.50;99.90;9.00;99931.00;;;;349968;27;90051;-88
2022/02/07 00:14:51;;;;;;;;;;;8.50;99.90;8.90;99939.00;;;;350129;27;82485;-89
2022/02/07 00:15:04;;;;;;;;;;;8.50;99.90;9.00;99931.00;;;;346053;28;87719;-88
2022/02/07 00:15:16;;;;;;;;;;;8.50;99.90;9.00;99932.00;;;;349299;28;82379;-88
2022/02/07 00:15:28;;;;;;;;;;;8.50;99.90;9.00;99940.00;;;;351705;27;91584;-88
2022/02/07 00:15:40;;;;;;;;;;;8.50;99.90;9.00;99926.00;;;;349451;28;82170;-89
2022/02/07 00:15:52;;;;;;;;;;;8.50;99.90;9.10;99934.00;;;;348839;28;88028;-89
2022/02/07 00:16:04;;;;;;;;;;;8.50;99.90;9.10;99933.00;;;;349082;28;82907;-88
2022/02/07 00:16:15;;;;;;;;;;;8.50;99.90;9.00;99927.00;;;;347351;28;90405;-88
2022/02/07 00:16:30;;;;;;;;;;;8.50;99.90;9.00;99931.00;;;;350565;27;82395;-88
2022/02/07 00:16:42;;;;;;;;;;;8.50;99.90;9.00;99931.00;;;;348030;28;90411;-88
2022/02/07 00:16:54;;;;;;;;;;;8.50;99.90;9.10;99928.00;;;;348953;28;82486;-88
2022/02/07 00:17:06;;;;;;;;;;;8.50;99.90;9.00;99931.00;;;;347117;28;88026;-88
2022/02/07 00:17:17;;;;;;;;;;;8.50;99.90;9.00;99928.00;;;;350928;27;82345;-88
2022/02/07 00:17:29;;;;;;;;;;;8.60;99.90;9.00;99934.00;;;;348785;28;92472;-88
2022/02/07 00:17:41;;;;;;;;;;;8.50;99.90;9.00;99922.00;;;;346637;28;82471;-87
2022/02/07 00:17:53;;;;;;;;;;;8.50;99.90;9.00;99937.00;;;;347260;28;90068;-89
2022/02/07 00:18:05;;;;;;;;;;;8.50;99.90;9.00;99924.00;;;;346363;28;82317;-89
2022/02/07 00:18:17;;;;;;;;;;;8.60;99.90;9.00;99926.00;;;;348873;27;90405;-88
2022/02/07 00:18:29;;;;;;;;;;;8.60;99.90;9.00;99926.00;;;;349069;28;82517;-88
2022/02/07 00:18:41;;;;;;;;;;;8.60;99.90;9.10;99922.00;;;;348631;28;90819;-88
2022/02/07 00:18:53;;;;;;;;;;;8.60;99.90;9.30;99921.00;;;;350715;27;83455;-88
2022/02/07 00:19:06;;;;;;;;;;;8.60;99.90;9.30;99923.00;;;;345943;28;90439;-89
2022/02/07 00:19:22;;;;;;;;;;;8.60;99.90;9.30;99924.00;;;;346468;28;82371;-88
2022/02/07 00:19:34;;;;;;;;;;;8.60;99.90;9.20;99925.00;;;;348034;28;91530;-89
2022/02/07 00:19:46;;;;;;;;;;;8.60;99.90;9.20;99924.00;;;;346361;28;82565;-88
2022/02/07 00:19:59;;;;;;;;;;;8.60;99.90;9.20;99924.00;;;;347313;28;90570;-88
2022/02/07 00:20:17;;;;;;;;;;;8.60;99.90;9.20;99919.00;;;;347664;28;83502;-89
2022/02/07 00:20:29;;;;;;;;;;;8.60;99.90;9.10;99924.00;;;;348942;28;87465;-88
2022/02/07 00:20:41;;;;;;;;;;;8.70;99.90;9.20;99926.00;;;;349121;28;82362;-88
2022/02/07 00:20:53;;;;;;;;;;;8.60;99.90;9.20;99918.00;;;;347214;28;90280;-89
2022/02/07 00:21:05;;;;;;;;;;;8.60;99.90;9.20;99922.00;;;;347578;28;82562;-89
2022/02/07 00:21:17;;;;;;;;;;;8.70;99.90;9.20;99913.00;;;;347414;28;90605;-89
2022/02/07 00:21:28;;;;;;;;;;;8.70;99.90;9.20;99918.00;;;;347757;28;82398;-88
2022/02/07 00:21:40;;;;;;;;;;;8.70;99.90;9.10;99914.00;;;;348685;28;91380;-89
2022/02/07 00:21:52;;;;;;;;;;;8.70;99.90;9.10;99918.00;;;;349467;28;82227;-88
2022/02/07 00:22:05;;;;;;;;;;;8.70;99.90;9.10;99915.00;;;;347258;28;90246;-88
2022/02/07 00:22:16;;;;;;;;;;;8.70;99.90;9.20;99916.00;;;;349018;28;82432;-88
2022/02/07 00:22:28;;;;;;;;;;;8.70;99.90;9.20;99921.00;;;;348485;28;90338;-88
2022/02/07 00:22:40;;;;;;;;;;;8.60;99.90;9.20;99913.00;;;;347658;28;83144;-88
2022/02/07 00:22:52;;;;;;;;;;;8.70;99.90;9.20;99919.00;;;;348759;28;90283;-88
2022/02/07 00:23:03;;;;;;;;;;;8.70;99.90;9.10;99905.00;;;;349192;28;82424;-87
2022/02/07 00:23:15;;;;;;;;;;;8.60;99.90;9.10;99904.00;;;;345770;28;87722;-88
2022/02/07 00:23:27;;;;;;;;;;;8.60;99.90;9.20;99914.00;;;;347440;28;82394;-88
2022/02/07 00:23:39;;;;;;;;;;;8.70;99.90;9.20;99913.00;;;;346260;28;92482;-89
2022/02/07 00:23:52;;;;;;;;;;;8.70;99.90;9.20;99911.00;;;;346739;28;82420;-88
2022/02/07 00:24:04;;;;;;;;;;;8.70;99.90;9.20;99911.00;;;;347025;28;87892;-88
2022/02/07 00:24:15;;;;;;;;;;;8.70;99.90;9.20;99909.00;;;;345600;28;83206;-88
2022/02/07 00:24:27;;;;;;;;;;;8.70;99.90;9.20;99908.00;;;;345357;28;90236;-88
2022/02/07 00:24:39;;;;;;;;;;;8.70;99.90;9.20;99901.00;;;;348521;28;82540;-88
2022/02/07 00:24:51;;;;;;;;;;;8.70;99.90;9.20;99907.00;;;;345255;28;90076;-88
2022/02/07 00:25:03;;;;;;;;;;;8.70;99.90;9.20;99915.00;;;;345757;28;82409;-88
2022/02/07 00:25:15;;;;;;;;;;;8.70;99.90;9.10;99907.00;;;;345370;28;91493;-87
2022/02/07 00:25:27;;;;;;;;;;;8.70;99.90;9.10;99912.00;;;;344332;28;82466;-88
2022/02/07 00:25:39;;;;;;;;;;;8.70;99.90;9.10;99913.00;;;;344772;28;91236;-88
2022/02/07 00:25:50;;;;;;;;;;;8.70;99.90;9.00;99916.00;;;;346746;28;83349;-88
2022/02/07 00:26:02;;;;;;;;;;;8.70;99.90;9.00;99913.00;;;;346242;28;89244;-88
2022/02/07 00:26:14;;;;;;;;;;;8.60;99.90;9.00;99910.00;;;;345199;28;82441;-88
2022/02/07 00:26:26;;;;;;;;;;;8.60;99.90;9.00;99911.00;;;;347568;28;91230;-88
2022/02/07 00:26:37;;;;;;;;;;;8.60;99.90;9.00;99913.00;;;;347472;28;83518;-88
2022/02/07 00:26:49;;;;;;;;;;;8.60;99.90;9.00;99918.00;;;;347540;28;90270;-88
2022/02/07 00:27:01;;;;;;;;;;;8.60;99.90;9.00;99914.00;;;;347904;28;83296;-88
2022/02/07 00:27:12;;;;;;;;;;;8.60;99.90;9.00;99907.00;;;;344848;28;90998;-88
2022/02/07 00:27:24;;;;;;;;;;;8.60;99.90;9.00;99909.00;;;;345166;28;83359;-88
2022/02/07 00:27:36;;;;;;;;;;;8.60;99.90;9.00;99906.00;;;;345635;28;92410;-88
2022/02/07 00:27:48;;;;;;;;;;;8.60;99.90;9.10;99916.00;;;;346451;28;83803;-88
2022/02/07 00:28:00;;;;;;;;;;;8.60;99.90;9.20;99909.00;;;;347186;28;91646;-88
2022/02/07 00:28:12;;;;;;;;;;;8.60;99.90;9.20;99911.00;;;;344787;28;83296;-88
2022/02/07 00:28:25;;;;;;;;;;;8.60;99.90;9.20;99917.00;;;;347063;28;90222;-88
2022/02/07 00:28:36;;;;;;;;;;;8.60;99.90;9.20;99911.00;;;;346898;28;83509;-89
2022/02/07 00:28:49;;;;;;;;;;;8.60;99.90;9.10;99906.00;;;;346883;28;91537;-88
2022/02/07 00:29:01;;;;;;;;;;;8.60;99.90;9.10;99909.00;;;;345003;28;82496;-88
2022/02/07 00:29:14;;;;;;;;;;;8.60;99.90;9.10;99915.00;;;;346971;28;91284;-88
2022/02/07 00:29:26;;;;;;;;;;;8.60;99.90;9.10;99912.00;;;;347529;28;83321;-88
2022/02/07 00:29:37;;;;;;;;;;;8.60;99.90;9.00;99911.00;;;;347908;27;91712;-88
2022/02/07 00:29:49;;;;;;;;;;;8.60;99.90;9.00;99918.00;;;;347395;28;83276;-88
2022/02/07 00:30:05;;;;;;;;;;;8.60;99.90;9.10;99911.00;;;;345675;28;91621;-88
2022/02/07 00:30:18;;;;;;;;;;;8.60;99.90;9.00;99913.00;;;;346097;28;83529;-88
2022/02/07 00:30:30;;;;;;;;;;;8.60;99.90;9.00;99915.00;;;;348472;27;88837;-88
2022/02/07 00:30:41;;;;;;;;;;;8.60;99.90;9.00;99905.00;;;;347396;28;83329;-88
2022/02/07 00:30:53;;;;;;;;;;;8.60;99.90;9.00;99918.00;;;;343931;28;91411;-88
2022/02/07 00:31:05;;;;;;;;;;;8.60;99.90;9.00;99913.00;;;;347476;28;82578;-88
2022/02/07 00:31:17;;;;;;;;;;;8.60;99.90;9.00;99925.00;;;;345626;28;90332;-88
2022/02/07 00:31:29;;;;;;;;;;;8.60;99.90;9.00;99912.00;;;;346086;28;83421;-88
2022/02/07 00:31:41;;;;;;;;;;;8.60;99.90;9.10;99900.00;;;;345568;28;91139;-88
2022/02/07 00:31:53;;;;;;;;;;;8.60;99.90;9.00;99912.00;;;;345992;28;83403;-88
2022/02/07 00:32:05;;;;;;;;;;;8.60;99.90;9.00;99912.00;;;;346473;28;90225;-88
2022/02/07 00:32:16;;;;;;;;;;;8.60;99.90;9.00;99909.00;;;;345983;28;83362;-88
2022/02/07 00:32:28;;;;;;;;;;;8.60;99.90;9.00;99916.00;;;;345593;28;91212;-88
2022/02/07 00:32:40;;;;;;;;;;;8.60;99.90;9.00;99906.00;;;;346043;28;83544;-88
2022/02/07 00:32:52;;;;;;;;;;;8.60;99.90;9.00;99909.00;;;;345566;28;91348;-89
2022/02/07 00:33:04;;;;;;;;;;;8.60;99.90;9.00;99910.00;;;;344631;28;83244;-88
2022/02/07 00:33:16;;;;;;;;;;;8.60;99.90;9.00;99903.00;;;;345626;28;88229;-88
2022/02/07 00:33:27;;;;;;;;;;;8.60;99.90;9.00;99910.00;;;;346029;28;83390;-88
2022/02/07 00:33:39;;;;;;;;;;;8.60;99.90;9.00;99912.00;;;;344157;28;92954;-88
2022/02/07 00:33:53;;;;;;;;;;;8.60;99.90;9.00;99913.00;;;;344556;28;83363;-88
2022/02/07 00:34:05;;;;;;;;;;;8.60;99.90;9.00;99907.00;;;;345619;28;91623;-87
2022/02/07 00:34:16;;;;;;;;;;;8.60;99.90;9.00;99901.00;;;;347399;28;82504;-88
2022/02/07 00:34:28;;;;;;;;;;;8.60;99.90;9.00;99908.00;;;;348004;27;91528;-88
2022/02/07 00:34:40;;;;;;;;;;;8.60;99.90;9.00;99903.00;;;;348210;27;82456;-88
2022/02/07 00:34:52;;;;;;;;;;;8.70;99.90;9.10;99907.00;;;;346958;28;90469;-88
2022/02/07 00:35:05;;;;;;;;;;;8.60;99.90;9.10;99903.00;;;;347395;27;83440;-88
2022/02/07 00:35:20;;;;;;;;;;;8.60;99.90;9.10;99909.00;;;;346997;28;92129;-88
2022/02/07 00:35:31;;;;;;;;;;;8.60;99.90;9.10;99914.00;;;;347280;28;83478;-89
2022/02/07 00:35:43;;;;;;;;;;;8.60;99.90;9.10;99913.00;;;;346876;28;91163;-89
2022/02/07 00:35:55;;;;;;;;;;;8.60;99.90;9.10;99913.00;;;;346066;28;83379;-88
2022/02/07 00:36:07;;;;;;;;;;;8.60;99.90;9.10;99913.00;;;;345619;28;90912;-88
2022/02/07 00:36:19;;;;;;;;;;;8.60;99.90;9.10;99908.00;;;;346048;28;83401;-89
2022/02/07 00:36:32;;;;;;;;;;;8.60;99.90;9.10;99915.00;;;;345619;28;91441;-89
2022/02/07 00:36:43;;;;;;;;;;;8.60;99.90;9.10;99916.00;;;;344665;28;82437;-88
2022/02/07 00:36:55;;;;;;;;;;;8.60;99.90;9.00;99913.00;;;;344107;28;91860;-88
2022/02/07 00:37:07;;;;;;;;;;;8.60;99.90;9.10;99916.00;;;;346003;28;83553;-88
2022/02/07 00:37:19;;;;;;;;;;;8.60;99.90;9.10;99910.00;;;;343897;28;91652;-89
2022/02/07 00:37:32;;;;;;;;;;;8.60;99.90;9.10;99910.00;;;;346139;28;83302;-88
2022/02/07 00:37:45;;;;;;;;;;;8.60;99.90;9.10;99905.00;;;;345577;28;89710;-88
2022/02/07 00:38:00;;;;;;;;;;;8.60;99.90;9.10;99913.00;;;;347433;28;83209;-88
2022/02/07 00:38:17;;;;;;;;;;;8.60;99.90;9.00;99915.00;;;;344191;28;90523;-88
2022/02/07 00:38:29;;;;;;;;;;;8.60;99.90;9.00;99922.00;;;;347420;28;83492;-88
2022/02/07 00:38:47;;;;;;;;;;;8.60;99.90;9.00;99917.00;;;;348277;27;92623;-88
2022/02/07 00:39:06;;;;;;;;;;;8.60;99.90;9.00;99917.00;;;;345973;28;83399;-89
2022/02/07 00:39:27;;;;;;;;;;;8.60;99.90;9.00;99919.00;;;;347034;28;90309;-89
2022/02/07 00:41:01;;;;;;;;;;;8.60;99.90;9.00;99927.00;;;;345355;28;91372;-89
2022/02/07 00:41:18;;;;;;;;;;;8.60;99.90;9.00;99925.00;;;;344526;28;83223;-89
2022/02/07 00:41:55;;;;;;;;;;;8.60;99.90;9.10;99918.00;;;;345612;28;90108;-89
2022/02/07 00:42:07;;;;;;;;;;;8.60;99.90;9.10;99918.00;;;;345920;28;83355;-88
2022/02/07 00:42:28;;;;;;;;;;;8.60;99.90;9.10;99920.00;;;;346952;28;91137;-89
2022/02/07 00:43:00;;;;;;;;;;;8.60;99.90;9.10;99929.00;;;;346094;28;83241;-88
2022/02/07 00:43:51;;;;;;;;;;;8.60;99.90;9.00;99932.00;;;;348006;27;90465;-89
2022/02/07 00:44:11;;;;;;;;;;;8.60;99.90;9.00;99925.00;;;;348609;27;83536;-89
2022/02/07 00:44:24;;;;;;;;;;;8.60;99.90;9.00;99934.00;;;;344040;28;92432;-89
2022/02/07 00:44:36;;;;;;;;;;;8.60;99.90;9.00;99927.00;;;;347362;28;82591;-89
2022/02/07 00:44:49;;;;;;;;;;;8.60;99.90;9.00;99922.00;;;;345542;28;91467;-88
2022/02/07 00:45:12;;;;;;;;;;;8.60;99.90;9.00;99930.00;;;;344809;28;83895;-88
2022/02/07 00:45:57;;;;;;;;;;;8.60;99.90;9.20;99924.00;;;;343366;28;82710;-89
2022/02/07 00:46:11;;;;;;;;;;;8.60;99.90;9.00;99931.00;;;;346792;28;90896;-89
2022/02/07 00:46:24;;;;;;;;;;;8.60;99.90;9.00;99930.00;;;;346096;28;83398;-89
2022/02/07 00:46:45;;;;;;;;;;;8.60;99.90;8.90;99934.00;;;;346483;28;88369;-89
2022/02/07 00:46:58;;;;;;;;;;;8.60;99.90;8.90;99931.00;;;;346008;28;82492;-89
2022/02/07 00:47:10;;;;;;;;;;;8.60;99.90;8.90;99919.00;;;;344151;28;93560;-88
2022/02/07 00:47:22;;;;;;;;;;;8.60;99.90;8.90;99930.00;;;;349012;27;82270;-89
2022/02/07 00:47:33;;;;;;;;;;;8.60;99.90;8.90;99928.00;;;;349090;27;90191;-89
2022/02/07 00:47:45;;;;;;;;;;;8.60;99.90;8.90;99919.00;;;;348812;27;82438;-89
2022/02/07 00:48:00;;;;;;;;;;;8.60;99.90;8.90;99924.00;;;;345556;28;90528;-89
2022/02/07 00:48:12;;;;;;;;;;;8.60;99.90;8.80;99924.00;;;;344394;28;83519;-89
2022/02/07 00:48:24;;;;;;;;;;;8.60;99.90;8.80;99924.00;;;;344240;28;90343;-89
2022/02/07 00:48:37;;;;;;;;;;;8.60;99.90;8.80;99922.00;;;;346224;28;82385;-89
2022/02/07 00:48:48;;;;;;;;;;;8.60;99.90;8.90;99930.00;;;;345510;28;91771;-89
2022/02/07 00:49:00;;;;;;;;;;;8.60;99.90;8.80;99918.00;;;;347362;28;83450;-89
2022/02/07 00:49:12;;;;;;;;;;;8.60;99.90;8.80;99922.00;;;;346913;28;92272;-89
2022/02/07 00:49:25;;;;;;;;;;;8.60;99.90;8.90;99923.00;;;;346061;28;83325;-89
2022/02/07 00:49:36;;;;;;;;;;;8.60;99.90;8.90;99927.00;;;;347918;27;97019;-89
2022/02/07 00:49:48;;;;;;;;;;;8.60;99.90;8.90;99923.00;;;;347774;27;83464;-89
2022/02/07 00:50:00;;;;;;;;;;;8.60;99.90;8.90;99931.00;;;;345529;28;90283;-89
2022/02/07 00:50:12;;;;;;;;;;;8.60;99.90;8.90;99920.00;;;;347114;28;83336;-89
2022/02/07 00:50:23;;;;;;;;;;;8.50;99.90;8.90;99928.00;;;;346963;28;91565;-89
2022/02/07 00:50:36;;;;;;;;;;;8.60;99.90;9.00;99918.00;;;;348691;27;82473;-89
2022/02/07 00:50:48;;;;;;;;;;;8.50;99.90;9.00;99929.00;;;;351202;27;90092;-89
2022/02/07 00:51:00;;;;;;;;;;;8.60;99.90;9.00;99931.00;;;;348843;27;82272;-89
2022/02/07 00:51:12;;;;;;;;;;;8.50;99.90;8.90;99928.00;;;;348377;27;92414;-89
2022/02/07 00:51:24;;;;;;;;;;;8.50;99.90;9.00;99932.00;;;;347465;28;83213;-89
2022/02/07 00:51:36;;;;;;;;;;;8.50;99.90;9.00;99917.00;;;;345591;28;90109;-88
2022/02/07 00:51:47;;;;;;;;;;;8.50;99.90;9.10;99926.00;;;;347522;28;83261;-89
2022/02/07 00:51:59;;;;;;;;;;;8.50;99.90;9.00;99922.00;;;;347000;28;91444;-89
2022/02/07 00:52:11;;;;;;;;;;;8.50;99.90;9.10;99920.00;;;;347423;28;82385;-89
2022/02/07 00:52:23;;;;;;;;;;;8.60;99.90;9.10;99919.00;;;;345600;28;91541;-89
2022/02/07 00:52:35;;;;;;;;;;;8.60;99.90;9.10;99920.00;;;;346877;28;83518;-89
2022/02/07 00:52:47;;;;;;;;;;;8.60;99.90;9.10;99919.00;;;;346738;28;92005;-89
2022/02/07 00:52:58;;;;;;;;;;;8.50;99.90;9.10;99912.00;;;;347279;28;83345;-89
2022/02/07 00:53:11;;;;;;;;;;;8.60;99.90;9.10;99923.00;;;;346918;28;91784;-89
2022/02/07 00:53:23;;;;;;;;;;;8.60;99.90;9.10;99913.00;;;;347285;28;82348;-89
2022/02/07 00:53:35;;;;;;;;;;;8.60;99.90;9.10;99924.00;;;;346827;28;90546;-89
2022/02/07 00:53:47;;;;;;;;;;;8.60;99.90;9.20;99926.00;;;;348636;27;83429;-89
2022/02/07 00:54:00;;;;;;;;;;;8.60;99.90;9.20;99915.00;;;;346904;28;90821;-89
2022/02/07 00:54:12;;;;;;;;;;;8.60;99.90;9.20;99920.00;;;;348755;27;83333;-89
2022/02/07 00:54:23;;;;;;;;;;;8.60;99.90;9.10;99919.00;;;;347007;28;90405;-89
2022/02/07 00:54:35;;;;;;;;;;;8.60;99.90;9.20;99917.00;;;;347385;28;83386;-89
2022/02/07 00:54:47;;;;;;;;;;;8.60;99.90;9.10;99918.00;;;;345528;28;91473;-88
2022/02/07 00:55:00;;;;;;;;;;;8.60;99.90;9.10;99920.00;;;;347418;27;82269;-89
2022/02/07 00:55:11;;;;;;;;;;;8.60;99.90;9.10;99918.00;;;;349755;27;92638;-89
2022/02/07 00:55:23;;;;;;;;;;;8.60;99.90;9.10;99916.00;;;;348281;27;83370;-89
2022/02/07 00:55:35;;;;;;;;;;;8.60;99.90;9.10;99916.00;;;;347528;27;91591;-89
2022/02/07 00:55:47;;;;;;;;;;;8.60;99.90;9.10;99916.00;;;;347296;28;83393;-89
2022/02/07 00:55:58;;;;;;;;;;;8.60;99.90;9.10;99924.00;;;;344757;28;87941;-89
2022/02/07 00:56:10;;;;;;;;;;;8.60;99.90;9.10;99915.00;;;;340383;28;83162;-89
2022/02/07 00:56:22;;;;;;;;;;;8.60;99.90;9.10;99916.00;;;;337346;28;91413;-89
2022/02/07 00:56:34;;;;;;;;;;;8.60;99.90;9.00;99915.00;;;;338295;28;82346;-89
2022/02/07 00:56:45;;;;;;;;;;;8.60;99.90;9.10;99918.00;;;;339999;28;91019;-89
2022/02/07 00:56:57;;;;;;;;;;;8.60;99.90;9.00;99923.00;;;;340436;28;82360;-89
2022/02/07 00:57:09;;;;;;;;;;;8.60;99.90;9.00;99924.00;;;;341192;28;92469;-89
2022/02/07 00:57:21;;;;;;;;;;;8.60;99.90;9.00;99921.00;;;;340441;28;83287;-89
2022/02/07 00:57:34;;;;;;;;;;;8.60;99.90;8.90;99922.00;;;;339916;28;89543;-89
2022/02/07 00:57:46;;;;;;;;;;;8.60;99.90;8.90;99923.00;;;;339088;28;83253;-89
2022/02/07 00:57:58;;;;;;;;;;;8.60;99.90;9.00;99923.00;;;;337070;28;91082;-89
2022/02/07 00:58:09;;;;;;;;;;;8.60;99.90;9.00;99926.00;;;;336360;28;83481;-89
2022/02/07 00:58:21;;;;;;;;;;;8.60;99.90;9.00;99924.00;;;;337379;28;91632;-89
2022/02/07 00:58:33;;;;;;;;;;;8.60;99.90;9.00;99918.00;;;;340924;28;82500;-89
2022/02/07 00:58:45;;;;;;;;;;;8.60;99.90;9.00;99924.00;;;;344340;28;89192;-89
2022/02/07 00:58:57;;;;;;;;;;;8.60;99.90;9.00;99924.00;;;;339072;28;83446;-89
2022/02/07 00:59:09;;;;;;;;;;;8.60;99.90;9.00;99928.00;;;;338611;28;91833;-89
2022/02/07 00:59:21;;;;;;;;;;;8.60;99.90;9.10;99922.00;;;;339274;28;82249;-89
2022/02/07 00:59:33;;;;;;;;;;;8.60;99.90;9.10;99916.00;;;;337086;28;91917;-89
2022/02/07 00:59:45;;;;;;;;;;;8.60;99.90;9.10;99915.00;;;;339040;28;83598;-88
2022/02/07 00:59:56;;;;;;;;;;;8.60;99.90;9.10;99913.00;;;;339906;28;91542;-89
2022/02/07 01:00:10;;;;;;;;;;;8.60;99.90;9.20;99920.00;;;;337616;28;83510;-88
2022/02/07 01:00:22;;;;;;;;;;;8.60;99.90;9.20;99917.00;;;;335784;28;91632;-89
2022/02/07 01:00:34;;;;;;;;;;;8.60;99.90;9.20;99916.00;;;;337738;28;82511;-89
2022/02/07 01:00:46;;;;;;;;;;;8.60;99.90;9.30;99915.00;;;;339935;28;90404;-89
2022/02/07 01:00:58;;;;;;;;;;;8.60;99.90;9.30;99910.00;;;;339016;28;83318;-89
2022/02/07 01:01:10;;;;;;;;;;;8.70;99.90;9.30;99911.00;;;;341279;28;90062;-89
2022/02/07 01:01:27;;;;;;;;;;;8.70;99.90;9.30;99921.00;;;;337876;28;82424;-89
2022/02/07 01:01:38;;;;;;;;;;;8.70;99.90;9.30;99917.00;;;;341140;28;91307;-89
2022/02/07 01:01:50;;;;;;;;;;;8.70;99.90;9.20;99918.00;;;;345261;28;82460;-88
2022/02/07 01:02:02;;;;;;;;;;;8.70;99.90;9.20;99917.00;;;;341988;28;89401;-88
2022/02/07 01:02:14;;;;;;;;;;;8.70;99.90;9.20;99916.00;;;;337623;28;83542;-89
2022/02/07 01:02:25;;;;;;;;;;;8.70;99.90;9.10;99913.00;;;;337346;28;92004;-89
2022/02/07 01:02:37;;;;;;;;;;;8.70;99.90;9.10;99904.00;;;;338735;28;83398;-89
2022/02/07 01:02:49;;;;;;;;;;;8.70;99.90;9.10;99911.00;;;;338671;28;88828;-89
2022/02/07 01:03:01;;;;;;;;;;;8.70;99.90;9.10;99910.00;;;;336474;28;82401;-89
2022/02/07 01:03:13;;;;;;;;;;;8.70;99.90;9.00;99913.00;;;;337342;28;92343;-88
2022/02/07 01:03:25;;;;;;;;;;;8.70;99.90;9.00;99913.00;;;;339138;28;83352;-89
2022/02/07 01:03:36;;;;;;;;;;;8.60;99.90;8.90;99917.00;;;;338611;28;90820;-89
2022/02/07 01:03:48;;;;;;;;;;;8.70;99.90;8.90;99915.00;;;;339043;28;83259;-89
2022/02/07 01:04:00;;;;;;;;;;;8.70;99.90;8.80;99918.00;;;;342723;28;91383;-89
2022/02/07 01:04:12;;;;;;;;;;;8.60;99.90;8.80;99917.00;;;;338693;28;83704;-89
2022/02/07 01:04:24;;;;;;;;;;;8.60;99.90;8.80;99922.00;;;;338702;28;91439;-89
2022/02/07 01:04:36;;;;;;;;;;;8.60;99.90;8.70;99913.00;;;;341903;28;82616;-89
2022/02/07 01:04:48;;;;;;;;;;;8.60;99.90;8.70;99926.00;;;;342013;28;91717;-89
2022/02/07 01:04:59;;;;;;;;;;;8.60;99.90;8.80;99920.00;;;;341600;28;82408;-87
2022/02/07 01:05:11;;;;;;;;;;;8.60;99.90;8.80;99920.00;;;;338625;28;89893;-89
2022/02/07 01:05:23;;;;;;;;;;;8.60;99.90;8.90;99920.00;;;;340366;28;83357;-89
2022/02/07 01:05:35;;;;;;;;;;;8.60;99.90;9.00;99913.00;;;;338423;28;91623;-89
2022/02/07 01:05:47;;;;;;;;;;;8.60;99.90;9.00;99921.00;;;;337729;28;83819;-89
2022/02/07 01:05:59;;;;;;;;;;;8.60;99.90;9.00;99917.00;;;;337362;28;89803;-89
2022/02/07 01:06:11;;;;;;;;;;;8.60;99.90;9.00;99917.00;;;;337743;28;84173;-89
2022/02/07 01:06:23;;;;;;;;;;;8.60;99.90;9.10;99914.00;;;;337018;28;91189;-89
2022/02/07 01:06:35;;;;;;;;;;;8.60;99.90;9.10;99914.00;;;;339083;28;83385;-89
2022/02/07 01:06:47;;;;;;;;;;;8.60;99.90;9.10;99910.00;;;;335921;28;92346;-88
2022/02/07 01:06:58;;;;;;;;;;;8.60;99.90;9.00;99912.00;;;;337725;28;82437;-89
2022/02/07 01:07:10;;;;;;;;;;;8.60;99.90;9.20;99920.00;;;;338557;28;91303;-89
2022/02/07 01:07:22;;;;;;;;;;;8.60;99.90;9.20;99908.00;;;;339146;28;83287;-89
2022/02/07 01:07:35;;;;;;;;;;;8.60;99.90;9.10;99912.00;;;;340770;28;91365;-89
2022/02/07 01:07:49;;;;;;;;;;;8.60;99.90;9.10;99911.00;;;;340364;28;83420;-89
2022/02/07 01:08:03;;;;;;;;;;;8.60;99.90;9.00;99916.00;;;;338528;28;91489;-89